createdAt,value
2022-09-14T00:00:06.113Z,17.40
2022-09-14T00:00:16.626Z,17.40
2022-09-14T00:00:27.160Z,17.43
2022-09-14T00:00:37.667Z,17.40
2022-09-14T00:01:03.072Z,17.38
2022-09-14T00:01:23.840Z,17.38
2022-09-14T00:01:24.775Z,17.40
2022-09-14T00:01:25.736Z,17.40
2022-09-14T00:01:31.350Z,17.38
2022-09-14T00:01:40.961Z,17.38
2022-09-14T00:01:51.444Z,17.38
2022-09-14T00:02:01.996Z,17.38
2022-09-14T00:02:12.516Z,17.37
2022-09-14T00:02:22.933Z,17.38
2022-09-14T00:02:33.530Z,17.38
2022-09-14T00:02:44.071Z,17.37
2022-09-14T00:02:54.527Z,17.38
2022-09-14T00:03:05.129Z,17.36
2022-09-14T00:03:15.514Z,17.36
2022-09-14T00:03:26.039Z,17.34
2022-09-14T00:03:36.514Z,17.34
2022-09-14T00:03:47.032Z,17.34
2022-09-14T00:03:57.556Z,17.33
2022-09-14T00:04:08.072Z,17.31
2022-09-14T00:04:18.628Z,17.31
2022-09-14T00:04:29.113Z,17.30
2022-09-14T00:04:39.654Z,17.31
2022-09-14T00:04:50.152Z,17.30
2022-09-14T00:05:00.680Z,17.28
2022-09-14T00:05:11.196Z,17.28
2022-09-14T00:05:21.721Z,17.26
2022-09-14T00:05:32.237Z,17.26
2022-09-14T00:05:42.758Z,17.28
2022-09-14T00:05:53.283Z,17.23
2022-09-14T00:06:03.803Z,17.23
2022-09-14T00:06:14.320Z,17.25
2022-09-14T00:06:24.840Z,17.26
2022-09-14T00:06:35.356Z,17.23
2022-09-14T00:06:45.886Z,17.26
2022-09-14T00:06:56.400Z,17.23
2022-09-14T00:07:06.923Z,17.26
2022-09-14T00:07:17.442Z,17.23
2022-09-14T00:07:27.973Z,17.22
2022-09-14T00:07:38.518Z,17.23
2022-09-14T00:07:49.004Z,17.22
2022-09-14T00:07:59.521Z,17.21
2022-09-14T00:08:10.043Z,17.22
2022-09-14T00:08:20.562Z,17.22
2022-09-14T00:08:31.087Z,17.23
2022-09-14T00:08:41.601Z,17.22
2022-09-14T00:08:52.125Z,17.23
2022-09-14T00:09:02.644Z,17.21
2022-09-14T00:09:13.166Z,17.21
2022-09-14T00:09:23.687Z,17.22
2022-09-14T00:09:34.208Z,17.23
2022-09-14T00:09:44.832Z,17.22
2022-09-14T00:09:55.242Z,17.21
2022-09-14T00:10:05.769Z,17.21
2022-09-14T00:10:16.286Z,17.21
2022-09-14T00:10:26.801Z,17.22
2022-09-14T00:10:37.334Z,17.19
2022-09-14T00:10:47.843Z,17.18
2022-09-14T00:10:58.367Z,17.19
2022-09-14T00:11:08.885Z,17.15
2022-09-14T00:11:19.411Z,17.18
2022-09-14T00:11:29.925Z,17.14
2022-09-14T00:11:40.447Z,17.14
2022-09-14T00:11:51.039Z,17.12
2022-09-14T00:12:01.488Z,17.11
2022-09-14T00:12:12.014Z,17.11
2022-09-14T00:12:22.537Z,17.11
2022-09-14T00:12:33.046Z,17.08
2022-09-14T00:12:43.572Z,17.11
2022-09-14T00:12:54.088Z,17.11
2022-09-14T00:13:04.618Z,17.08
2022-09-14T00:13:15.128Z,17.08
2022-09-14T00:13:25.659Z,17.07
2022-09-14T00:13:36.168Z,17.06
2022-09-14T00:13:46.748Z,17.08
2022-09-14T00:13:57.215Z,17.08
2022-09-14T00:14:07.738Z,17.07
2022-09-14T00:14:18.247Z,17.06
2022-09-14T00:14:28.779Z,17.07
2022-09-14T00:14:39.292Z,17.04
2022-09-14T00:14:49.809Z,17.03
2022-09-14T00:15:00.329Z,17.03
2022-09-14T00:15:10.855Z,17.03
2022-09-14T00:15:21.366Z,17.03
2022-09-14T00:15:31.890Z,17.01
2022-09-14T00:15:42.415Z,17.03
2022-09-14T00:15:52.929Z,17.04
2022-09-14T00:16:03.445Z,17.01
2022-09-14T00:16:14.075Z,17.04
2022-09-14T00:16:24.601Z,17.01
2022-09-14T00:16:35.123Z,17.04
2022-09-14T00:16:45.618Z,17.03
2022-09-14T00:16:56.098Z,17.04
2022-09-14T00:17:06.649Z,17.06
2022-09-14T00:17:17.079Z,17.03
2022-09-14T00:17:27.596Z,17.03
2022-09-14T00:17:38.117Z,17.00
2022-09-14T00:17:48.638Z,17.00
2022-09-14T00:17:59.167Z,17.01
2022-09-14T00:18:09.679Z,17.03
2022-09-14T00:18:20.215Z,17.03
2022-09-14T00:18:30.710Z,17.01
2022-09-14T00:18:41.234Z,17.00
2022-09-14T00:18:51.752Z,17.00
2022-09-14T00:19:02.281Z,17.01
2022-09-14T00:19:12.810Z,17.01
2022-09-14T00:19:23.313Z,17.01
2022-09-14T00:19:33.836Z,16.98
2022-09-14T00:19:44.365Z,17.00
2022-09-14T00:19:54.893Z,16.98
2022-09-14T00:20:05.386Z,16.98
2022-09-14T00:20:15.907Z,17.00
2022-09-14T00:20:26.432Z,16.98
2022-09-14T00:20:36.943Z,16.98
2022-09-14T00:20:47.465Z,16.97
2022-09-14T00:20:57.985Z,16.97
2022-09-14T00:21:08.511Z,16.98
2022-09-14T00:21:19.022Z,16.97
2022-09-14T00:21:29.547Z,17.00
2022-09-14T00:21:40.065Z,16.98
2022-09-14T00:21:50.580Z,16.97
2022-09-14T00:22:01.101Z,16.96
2022-09-14T00:22:11.623Z,16.98
2022-09-14T00:22:22.149Z,16.96
2022-09-14T00:22:32.669Z,16.98
2022-09-14T00:22:43.187Z,16.94
2022-09-14T00:22:53.709Z,16.94
2022-09-14T00:23:04.229Z,16.96
2022-09-14T00:23:14.754Z,16.96
2022-09-14T00:23:25.268Z,16.94
2022-09-14T00:23:35.788Z,16.96
2022-09-14T00:23:46.311Z,16.96
2022-09-14T00:23:56.837Z,16.93
2022-09-14T00:24:07.528Z,16.93
2022-09-14T00:24:17.875Z,16.91
2022-09-14T00:24:28.386Z,16.93
2022-09-14T00:24:38.908Z,16.93
2022-09-14T00:24:49.447Z,16.93
2022-09-14T00:24:59.959Z,16.93
2022-09-14T00:25:10.465Z,16.91
2022-09-14T00:25:21.007Z,16.93
2022-09-14T00:25:31.504Z,16.91
2022-09-14T00:25:42.028Z,16.91
2022-09-14T00:25:52.549Z,16.93
2022-09-14T00:26:03.140Z,16.93
2022-09-14T00:26:13.586Z,16.93
2022-09-14T00:26:24.109Z,16.91
2022-09-14T00:26:34.625Z,16.93
2022-09-14T00:26:45.145Z,16.91
2022-09-14T00:26:55.676Z,16.91
2022-09-14T00:27:06.180Z,16.93
2022-09-14T00:27:16.704Z,16.91
2022-09-14T00:27:27.220Z,16.91
2022-09-14T00:27:37.770Z,16.93
2022-09-14T00:27:48.260Z,16.89
2022-09-14T00:27:58.779Z,16.93
2022-09-14T00:28:09.325Z,16.91
2022-09-14T00:28:19.824Z,16.89
2022-09-14T00:28:30.351Z,16.89
2022-09-14T00:28:40.861Z,16.89
2022-09-14T00:28:51.384Z,16.91
2022-09-14T00:29:01.901Z,16.89
2022-09-14T00:29:12.427Z,16.91
2022-09-14T00:29:22.944Z,16.91
2022-09-14T00:29:33.463Z,16.88
2022-09-14T00:29:43.991Z,16.88
2022-09-14T00:29:54.496Z,16.88
2022-09-14T00:30:05.024Z,16.88
2022-09-14T00:30:15.543Z,16.89
2022-09-14T00:30:26.062Z,16.88
2022-09-14T00:30:36.578Z,16.88
2022-09-14T00:30:47.101Z,16.86
2022-09-14T00:30:57.623Z,16.85
2022-09-14T00:31:08.139Z,16.88
2022-09-14T00:31:18.724Z,16.88
2022-09-14T00:31:29.234Z,16.86
2022-09-14T00:31:39.767Z,16.88
2022-09-14T00:31:50.408Z,16.88
2022-09-14T00:32:00.846Z,16.86
2022-09-14T00:32:11.295Z,16.88
2022-09-14T00:32:21.770Z,16.86
2022-09-14T00:32:32.288Z,16.88
2022-09-14T00:32:42.817Z,16.89
2022-09-14T00:32:53.332Z,16.86
2022-09-14T00:33:03.846Z,16.88
2022-09-14T00:33:14.374Z,16.88
2022-09-14T00:33:24.893Z,16.88
2022-09-14T00:33:35.422Z,16.91
2022-09-14T00:33:45.932Z,16.86
2022-09-14T00:33:56.444Z,16.88
2022-09-14T00:34:06.973Z,16.88
2022-09-14T00:34:17.486Z,16.88
2022-09-14T00:34:28.031Z,16.86
2022-09-14T00:34:38.522Z,16.89
2022-09-14T00:34:49.044Z,16.89
2022-09-14T00:34:59.555Z,16.86
2022-09-14T00:35:10.087Z,16.88
2022-09-14T00:35:20.595Z,16.88
2022-09-14T00:35:31.116Z,16.88
2022-09-14T00:35:41.633Z,16.86
2022-09-14T00:35:52.157Z,16.86
2022-09-14T00:36:02.671Z,16.86
2022-09-14T00:36:13.198Z,16.88
2022-09-14T00:36:23.712Z,16.86
2022-09-14T00:36:34.231Z,16.88
2022-09-14T00:36:44.762Z,16.88
2022-09-14T00:36:55.275Z,16.89
2022-09-14T00:37:05.786Z,16.86
2022-09-14T00:37:16.312Z,16.88
2022-09-14T00:37:26.827Z,16.86
2022-09-14T00:37:37.348Z,16.85
2022-09-14T00:37:47.868Z,16.86
2022-09-14T00:37:58.380Z,16.88
2022-09-14T00:38:08.906Z,16.86
2022-09-14T00:38:19.418Z,16.85
2022-09-14T00:38:29.941Z,16.88
2022-09-14T00:38:40.469Z,16.86
2022-09-14T00:38:51.006Z,16.86
2022-09-14T00:39:01.497Z,16.85
2022-09-14T00:39:12.023Z,16.85
2022-09-14T00:39:22.538Z,16.83
2022-09-14T00:39:33.061Z,16.85
2022-09-14T00:39:43.619Z,16.83
2022-09-14T00:39:54.261Z,16.83
2022-09-14T00:40:04.641Z,16.85
2022-09-14T00:40:15.251Z,16.85
2022-09-14T00:40:25.696Z,16.85
2022-09-14T00:40:36.176Z,16.85
2022-09-14T00:40:46.695Z,16.83
2022-09-14T00:40:57.222Z,16.83
2022-09-14T00:41:07.737Z,16.81
2022-09-14T00:41:18.260Z,16.83
2022-09-14T00:41:28.831Z,16.83
2022-09-14T00:41:39.302Z,16.83
2022-09-14T00:41:49.835Z,16.82
2022-09-14T00:42:00.338Z,16.82
2022-09-14T00:42:10.857Z,16.83
2022-09-14T00:42:21.375Z,16.83
2022-09-14T00:42:31.891Z,16.83
2022-09-14T00:42:42.414Z,16.82
2022-09-14T00:42:52.936Z,16.82
2022-09-14T00:43:03.453Z,16.82
2022-09-14T00:43:13.969Z,16.82
2022-09-14T00:43:24.498Z,16.83
2022-09-14T00:43:35.010Z,16.79
2022-09-14T00:43:45.538Z,16.83
2022-09-14T00:43:56.048Z,16.82
2022-09-14T00:44:06.601Z,16.81
2022-09-14T00:44:17.094Z,16.81
2022-09-14T00:44:27.607Z,16.82
2022-09-14T00:44:38.129Z,16.82
2022-09-14T00:44:48.641Z,16.82
2022-09-14T00:44:59.163Z,16.81
2022-09-14T00:45:09.680Z,16.79
2022-09-14T00:45:20.201Z,16.79
2022-09-14T00:45:30.797Z,16.81
2022-09-14T00:45:41.280Z,16.81
2022-09-14T00:45:51.890Z,16.79
2022-09-14T00:46:02.371Z,16.81
2022-09-14T00:46:12.879Z,16.79
2022-09-14T00:46:23.324Z,16.79
2022-09-14T00:46:33.843Z,16.79
2022-09-14T00:46:44.365Z,16.79
2022-09-14T00:46:54.885Z,16.81
2022-09-14T00:47:05.405Z,16.81
2022-09-14T00:47:15.924Z,16.79
2022-09-14T00:47:26.437Z,16.81
2022-09-14T00:47:36.960Z,16.81
2022-09-14T00:47:47.483Z,16.81
2022-09-14T00:47:58.005Z,16.81
2022-09-14T00:48:08.522Z,16.81
2022-09-14T00:48:19.043Z,16.81
2022-09-14T00:48:29.559Z,16.79
2022-09-14T00:48:40.078Z,16.81
2022-09-14T00:48:50.605Z,16.81
2022-09-14T00:49:01.124Z,16.81
2022-09-14T00:49:11.667Z,16.82
2022-09-14T00:49:22.159Z,16.79
2022-09-14T00:49:32.687Z,16.79
2022-09-14T00:49:43.200Z,16.79
2022-09-14T00:49:53.739Z,16.79
2022-09-14T00:50:04.240Z,16.78
2022-09-14T00:50:14.763Z,16.78
2022-09-14T00:50:25.278Z,16.78
2022-09-14T00:50:35.806Z,16.79
2022-09-14T00:50:46.326Z,16.78
2022-09-14T00:50:56.855Z,16.79
2022-09-14T00:51:07.362Z,16.78
2022-09-14T00:51:17.879Z,16.81
2022-09-14T00:51:28.406Z,16.78
2022-09-14T00:51:38.938Z,16.76
2022-09-14T00:51:49.451Z,16.76
2022-09-14T00:51:59.980Z,16.76
2022-09-14T00:52:10.487Z,16.76
2022-09-14T00:52:20.998Z,16.78
2022-09-14T00:52:31.520Z,16.75
2022-09-14T00:52:42.036Z,16.76
2022-09-14T00:52:52.565Z,16.75
2022-09-14T00:53:03.079Z,16.76
2022-09-14T00:53:13.593Z,16.76
2022-09-14T00:53:24.116Z,16.76
2022-09-14T00:53:34.639Z,16.76
2022-09-14T00:53:45.154Z,16.75
2022-09-14T00:53:55.674Z,16.78
2022-09-14T00:54:06.206Z,16.75
2022-09-14T00:54:16.720Z,16.75
2022-09-14T00:54:27.229Z,16.76
2022-09-14T00:54:37.752Z,16.75
2022-09-14T00:54:48.271Z,16.76
2022-09-14T00:54:58.859Z,16.76
2022-09-14T00:55:09.307Z,16.76
2022-09-14T00:55:19.832Z,16.78
2022-09-14T00:55:30.351Z,16.76
2022-09-14T00:55:40.874Z,16.78
2022-09-14T00:55:51.391Z,16.79
2022-09-14T00:56:01.908Z,16.76
2022-09-14T00:56:12.427Z,16.76
2022-09-14T00:56:22.947Z,16.76
2022-09-14T00:56:33.473Z,16.76
2022-09-14T00:56:43.994Z,16.78
2022-09-14T00:56:54.512Z,16.78
2022-09-14T00:57:05.074Z,16.76
2022-09-14T00:57:15.561Z,16.78
2022-09-14T00:57:26.067Z,16.78
2022-09-14T00:57:36.628Z,16.76
2022-09-14T00:57:47.116Z,16.75
2022-09-14T00:57:57.636Z,16.75
2022-09-14T00:58:08.156Z,16.78
2022-09-14T00:58:18.676Z,16.76
2022-09-14T00:58:29.198Z,16.76
2022-09-14T00:58:39.737Z,16.79
2022-09-14T00:58:50.403Z,16.78
2022-09-14T00:59:00.757Z,16.78
2022-09-14T00:59:11.304Z,16.79
2022-09-14T00:59:21.801Z,16.78
2022-09-14T00:59:32.317Z,16.76
2022-09-14T00:59:42.836Z,16.78
2022-09-14T00:59:53.365Z,16.78
2022-09-14T01:00:03.883Z,16.81
2022-09-14T01:00:14.400Z,16.79
2022-09-14T01:00:24.922Z,16.79
2022-09-14T01:00:35.445Z,16.81
2022-09-14T01:00:46.014Z,16.79
2022-09-14T01:00:56.541Z,16.79
2022-09-14T01:01:07.043Z,16.82
2022-09-14T01:01:17.731Z,16.81
2022-09-14T01:01:28.127Z,16.79
2022-09-14T01:01:38.665Z,16.82
2022-09-14T01:01:49.139Z,16.79
2022-09-14T01:01:59.684Z,16.81
2022-09-14T01:02:10.194Z,16.79
2022-09-14T01:02:20.719Z,16.83
2022-09-14T01:02:31.219Z,16.82
2022-09-14T01:02:41.687Z,16.81
2022-09-14T01:02:52.203Z,16.81
2022-09-14T01:03:02.730Z,16.79
2022-09-14T01:03:13.250Z,16.79
2022-09-14T01:03:23.771Z,16.81
2022-09-14T01:03:34.292Z,16.79
2022-09-14T01:03:44.810Z,16.81
2022-09-14T01:03:55.330Z,16.79
2022-09-14T01:04:05.867Z,16.82
2022-09-14T01:04:16.406Z,16.79
2022-09-14T01:04:26.895Z,16.79
2022-09-14T01:04:37.422Z,16.78
2022-09-14T01:04:47.936Z,16.79
2022-09-14T01:04:58.449Z,16.78
2022-09-14T01:05:08.988Z,16.78
2022-09-14T01:05:19.497Z,16.79
2022-09-14T01:05:30.015Z,16.78
2022-09-14T01:05:40.544Z,16.78
2022-09-14T01:05:51.056Z,16.76
2022-09-14T01:06:01.577Z,16.78
2022-09-14T01:06:12.103Z,16.76
2022-09-14T01:06:22.623Z,16.78
2022-09-14T01:06:33.143Z,16.75
2022-09-14T01:06:43.660Z,16.78
2022-09-14T01:06:54.189Z,16.78
2022-09-14T01:07:04.702Z,16.78
2022-09-14T01:07:15.229Z,16.78
2022-09-14T01:07:25.739Z,16.78
2022-09-14T01:07:36.263Z,16.76
2022-09-14T01:07:46.780Z,16.76
2022-09-14T01:07:57.303Z,16.76
2022-09-14T01:08:07.818Z,16.76
2022-09-14T01:08:18.340Z,16.78
2022-09-14T01:08:28.861Z,16.76
2022-09-14T01:08:39.464Z,16.76
2022-09-14T01:08:49.998Z,16.75
2022-09-14T01:09:00.416Z,16.75
2022-09-14T01:09:10.938Z,16.75
2022-09-14T01:09:21.459Z,16.73
2022-09-14T01:09:31.974Z,16.75
2022-09-14T01:09:42.508Z,16.71
2022-09-14T01:09:53.013Z,16.75
2022-09-14T01:10:03.555Z,16.73
2022-09-14T01:10:14.058Z,16.73
2022-09-14T01:10:24.571Z,16.71
2022-09-14T01:10:35.102Z,16.73
2022-09-14T01:10:45.623Z,16.71
2022-09-14T01:10:56.142Z,16.73
2022-09-14T01:11:06.655Z,16.71
2022-09-14T01:11:17.173Z,16.71
2022-09-14T01:11:27.691Z,16.70
2022-09-14T01:11:38.217Z,16.68
2022-09-14T01:11:51.680Z,16.68
2022-09-14T01:11:59.255Z,16.68
2022-09-14T01:12:09.780Z,16.68
2022-09-14T01:12:20.333Z,16.70
2022-09-14T01:12:30.820Z,16.68
2022-09-14T01:12:41.336Z,16.68
2022-09-14T01:12:51.857Z,16.68
2022-09-14T01:13:02.382Z,16.67
2022-09-14T01:13:12.895Z,16.66
2022-09-14T01:13:23.417Z,16.67
2022-09-14T01:13:33.936Z,16.67
2022-09-14T01:13:44.458Z,16.67
2022-09-14T01:13:54.976Z,16.64
2022-09-14T01:14:05.497Z,16.63
2022-09-14T01:14:16.016Z,16.63
2022-09-14T01:14:26.540Z,16.64
2022-09-14T01:14:37.054Z,16.61
2022-09-14T01:14:47.582Z,16.60
2022-09-14T01:14:58.102Z,16.61
2022-09-14T01:15:08.621Z,16.61
2022-09-14T01:15:19.142Z,16.58
2022-09-14T01:15:29.660Z,16.58
2022-09-14T01:15:40.181Z,16.58
2022-09-14T01:15:50.698Z,16.58
2022-09-14T01:16:01.279Z,16.56
2022-09-14T01:16:11.878Z,16.57
2022-09-14T01:16:22.325Z,16.58
2022-09-14T01:16:32.995Z,16.57
2022-09-14T01:16:43.339Z,16.58
2022-09-14T01:16:53.942Z,16.57
2022-09-14T01:17:04.335Z,16.57
2022-09-14T01:17:14.855Z,16.53
2022-09-14T01:17:25.382Z,16.58
2022-09-14T01:17:35.891Z,16.58
2022-09-14T01:17:46.409Z,16.53
2022-09-14T01:17:56.930Z,16.56
2022-09-14T01:18:07.463Z,16.57
2022-09-14T01:18:17.972Z,16.56
2022-09-14T01:18:28.486Z,16.56
2022-09-14T01:18:39.113Z,16.53
2022-09-14T01:18:49.541Z,16.56
2022-09-14T01:19:00.046Z,16.57
2022-09-14T01:19:10.565Z,16.60
2022-09-14T01:19:21.098Z,16.56
2022-09-14T01:19:31.607Z,16.56
2022-09-14T01:19:42.125Z,16.57
2022-09-14T01:19:52.646Z,16.56
2022-09-14T01:20:03.176Z,16.53
2022-09-14T01:20:13.726Z,16.56
2022-09-14T01:20:24.208Z,16.53
2022-09-14T01:20:34.729Z,16.53
2022-09-14T01:20:45.246Z,16.56
2022-09-14T01:20:55.789Z,16.56
2022-09-14T01:21:06.286Z,16.57
2022-09-14T01:21:16.806Z,16.57
2022-09-14T01:21:27.334Z,16.57
2022-09-14T01:21:37.846Z,16.57
2022-09-14T01:21:48.362Z,16.57
2022-09-14T01:21:58.906Z,16.57
2022-09-14T01:22:09.406Z,16.58
2022-09-14T01:22:19.921Z,16.56
2022-09-14T01:22:30.445Z,16.58
2022-09-14T01:22:40.959Z,16.57
2022-09-14T01:22:51.480Z,16.57
2022-09-14T01:23:01.995Z,16.57
2022-09-14T01:23:12.519Z,16.57
2022-09-14T01:23:23.040Z,16.57
2022-09-14T01:23:33.559Z,16.53
2022-09-14T01:23:44.076Z,16.53
2022-09-14T01:23:54.605Z,16.53
2022-09-14T01:24:05.114Z,16.52
2022-09-14T01:24:15.647Z,16.52
2022-09-14T01:24:26.169Z,16.56
2022-09-14T01:24:36.675Z,16.52
2022-09-14T01:24:47.194Z,16.52
2022-09-14T01:24:57.723Z,16.53
2022-09-14T01:25:08.257Z,16.52
2022-09-14T01:25:18.755Z,16.52
2022-09-14T01:25:29.270Z,16.52
2022-09-14T01:25:39.793Z,16.52
2022-09-14T01:25:50.318Z,16.52
2022-09-14T01:26:00.841Z,16.53
2022-09-14T01:26:11.355Z,16.56
2022-09-14T01:26:21.872Z,16.53
2022-09-14T01:26:32.392Z,16.53
2022-09-14T01:26:42.916Z,16.56
2022-09-14T01:26:53.475Z,16.56
2022-09-14T01:27:03.946Z,16.56
2022-09-14T01:27:14.462Z,16.56
2022-09-14T01:27:24.988Z,16.56
2022-09-14T01:27:35.502Z,16.53
2022-09-14T01:27:46.027Z,16.56
2022-09-14T01:27:56.539Z,16.57
2022-09-14T01:28:07.061Z,16.56
2022-09-14T01:28:17.572Z,16.58
2022-09-14T01:28:28.140Z,16.57
2022-09-14T01:28:38.613Z,16.57
2022-09-14T01:28:49.129Z,16.58
2022-09-14T01:28:59.657Z,16.58
2022-09-14T01:29:10.170Z,16.57
2022-09-14T01:29:20.688Z,16.58
2022-09-14T01:29:31.208Z,16.60
2022-09-14T01:29:41.721Z,16.58
2022-09-14T01:29:52.242Z,16.58
2022-09-14T01:30:02.766Z,16.60
2022-09-14T01:30:13.283Z,16.58
2022-09-14T01:30:23.799Z,16.58
2022-09-14T01:30:34.322Z,16.60
2022-09-14T01:30:44.838Z,16.58
2022-09-14T01:30:55.356Z,16.60
2022-09-14T01:31:05.876Z,16.60
2022-09-14T01:31:16.471Z,16.57
2022-09-14T01:31:26.934Z,16.60
2022-09-14T01:31:37.510Z,16.57
2022-09-14T01:31:48.029Z,16.57
2022-09-14T01:31:58.597Z,16.57
2022-09-14T01:32:09.030Z,16.58
2022-09-14T01:32:19.530Z,16.58
2022-09-14T01:32:30.035Z,16.57
2022-09-14T01:32:40.566Z,16.58
2022-09-14T01:32:51.104Z,16.57
2022-09-14T01:33:01.599Z,16.58
2022-09-14T01:33:12.111Z,16.58
2022-09-14T01:33:22.640Z,16.57
2022-09-14T01:33:33.150Z,16.58
2022-09-14T01:33:43.755Z,16.60
2022-09-14T01:33:54.182Z,16.58
2022-09-14T01:34:04.707Z,16.60
2022-09-14T01:34:15.222Z,16.58
2022-09-14T01:34:25.752Z,16.58
2022-09-14T01:34:36.288Z,16.58
2022-09-14T01:34:46.778Z,16.58
2022-09-14T01:34:57.292Z,16.58
2022-09-14T01:35:07.818Z,16.57
2022-09-14T01:35:18.340Z,16.57
2022-09-14T01:35:28.850Z,16.60
2022-09-14T01:35:39.371Z,16.58
2022-09-14T01:35:49.887Z,16.56
2022-09-14T01:36:00.406Z,16.57
2022-09-14T01:36:10.932Z,16.57
2022-09-14T01:36:21.495Z,16.58
2022-09-14T01:36:31.966Z,16.57
2022-09-14T01:36:42.484Z,16.56
2022-09-14T01:36:53.014Z,16.57
2022-09-14T01:37:03.521Z,16.53
2022-09-14T01:37:14.040Z,16.56
2022-09-14T01:37:24.556Z,16.53
2022-09-14T01:37:35.077Z,16.57
2022-09-14T01:37:45.593Z,16.56
2022-09-14T01:37:56.115Z,16.56
2022-09-14T01:38:06.634Z,16.56
2022-09-14T01:38:17.151Z,16.53
2022-09-14T01:38:27.671Z,16.53
2022-09-14T01:38:38.198Z,16.57
2022-09-14T01:38:48.709Z,16.56
2022-09-14T01:38:59.225Z,16.57
2022-09-14T01:39:09.762Z,16.58
2022-09-14T01:39:20.269Z,16.58
2022-09-14T01:39:30.779Z,16.60
2022-09-14T01:39:41.466Z,16.58
2022-09-14T01:39:51.868Z,16.60
2022-09-14T01:40:02.427Z,16.61
2022-09-14T01:40:12.934Z,16.61
2022-09-14T01:40:23.514Z,16.60
2022-09-14T01:40:33.964Z,16.61
2022-09-14T01:40:44.411Z,16.60
2022-09-14T01:40:54.931Z,16.60
2022-09-14T01:41:05.454Z,16.61
2022-09-14T01:41:15.970Z,16.61
2022-09-14T01:41:26.487Z,16.61
2022-09-14T01:41:37.007Z,16.61
2022-09-14T01:41:47.528Z,16.63
2022-09-14T01:41:58.049Z,16.63
2022-09-14T01:42:08.575Z,16.63
2022-09-14T01:42:19.085Z,16.61
2022-09-14T01:42:29.604Z,16.61
2022-09-14T01:42:40.121Z,16.63
2022-09-14T01:42:50.643Z,16.61
2022-09-14T01:43:01.186Z,16.63
2022-09-14T01:43:11.684Z,16.61
2022-09-14T01:43:22.194Z,16.61
2022-09-14T01:43:36.218Z,16.63
2022-09-14T01:43:43.231Z,16.63
2022-09-14T01:43:53.752Z,16.63
2022-09-14T01:44:04.278Z,16.63
2022-09-14T01:44:14.783Z,16.63
2022-09-14T01:44:25.304Z,16.60
2022-09-14T01:44:35.818Z,16.63
2022-09-14T01:44:46.341Z,16.63
2022-09-14T01:44:56.899Z,16.63
2022-09-14T01:45:07.382Z,16.63
2022-09-14T01:45:17.995Z,16.63
2022-09-14T01:45:28.474Z,16.61
2022-09-14T01:45:38.991Z,16.63
2022-09-14T01:45:49.520Z,16.63
2022-09-14T01:46:00.024Z,16.63
2022-09-14T01:46:10.612Z,16.64
2022-09-14T01:46:21.011Z,16.63
2022-09-14T01:46:31.537Z,16.61
2022-09-14T01:46:42.047Z,16.61
2022-09-14T01:46:52.562Z,16.63
2022-09-14T01:47:03.081Z,16.64
2022-09-14T01:47:13.594Z,16.64
2022-09-14T01:47:24.117Z,16.64
2022-09-14T01:47:34.639Z,16.64
2022-09-14T01:47:45.160Z,16.66
2022-09-14T01:47:55.675Z,16.64
2022-09-14T01:48:06.190Z,16.66
2022-09-14T01:48:16.711Z,16.67
2022-09-14T01:48:27.251Z,16.64
2022-09-14T01:48:37.748Z,16.64
2022-09-14T01:48:48.278Z,16.64
2022-09-14T01:48:58.783Z,16.66
2022-09-14T01:49:09.310Z,16.63
2022-09-14T01:49:19.825Z,16.66
2022-09-14T01:49:30.352Z,16.66
2022-09-14T01:49:40.869Z,16.66
2022-09-14T01:49:51.383Z,16.64
2022-09-14T01:50:01.904Z,16.66
2022-09-14T01:50:12.428Z,16.66
2022-09-14T01:50:22.943Z,16.63
2022-09-14T01:50:33.466Z,16.63
2022-09-14T01:50:43.976Z,16.64
2022-09-14T01:50:54.503Z,16.64
2022-09-14T01:51:05.019Z,16.61
2022-09-14T01:51:15.538Z,16.61
2022-09-14T01:51:26.054Z,16.63
2022-09-14T01:51:36.580Z,16.61
2022-09-14T01:51:47.091Z,16.61
2022-09-14T01:51:57.611Z,16.61
2022-09-14T01:52:08.128Z,16.60
2022-09-14T01:52:18.651Z,16.61
2022-09-14T01:52:29.167Z,16.61
2022-09-14T01:52:39.690Z,16.61
2022-09-14T01:52:50.204Z,16.63
2022-09-14T01:53:00.766Z,16.60
2022-09-14T01:53:11.246Z,16.61
2022-09-14T01:53:21.769Z,16.58
2022-09-14T01:53:32.283Z,16.60
2022-09-14T01:53:42.813Z,16.60
2022-09-14T01:53:53.318Z,16.60
2022-09-14T01:54:03.849Z,16.63
2022-09-14T01:54:14.362Z,16.60
2022-09-14T01:54:24.883Z,16.60
2022-09-14T01:54:35.393Z,16.61
2022-09-14T01:54:45.917Z,16.61
2022-09-14T01:54:56.431Z,16.60
2022-09-14T01:55:06.946Z,16.61
2022-09-14T01:55:17.482Z,16.60
2022-09-14T01:55:27.987Z,16.61
2022-09-14T01:55:38.504Z,16.60
2022-09-14T01:55:49.026Z,16.58
2022-09-14T01:55:59.541Z,16.61
2022-09-14T01:56:10.058Z,16.60
2022-09-14T01:56:20.597Z,16.60
2022-09-14T01:56:31.099Z,16.60
2022-09-14T01:56:41.615Z,16.60
2022-09-14T01:56:52.152Z,16.60
2022-09-14T01:57:02.707Z,16.60
2022-09-14T01:57:13.174Z,16.60
2022-09-14T01:57:23.687Z,16.60
2022-09-14T01:57:34.206Z,16.58
2022-09-14T01:57:44.724Z,16.60
2022-09-14T01:57:55.249Z,16.58
2022-09-14T01:58:05.761Z,16.57
2022-09-14T01:58:16.285Z,16.58
2022-09-14T01:58:26.803Z,16.57
2022-09-14T01:58:37.314Z,16.58
2022-09-14T01:58:47.871Z,16.58
2022-09-14T01:58:58.360Z,16.57
2022-09-14T01:59:08.872Z,16.56
2022-09-14T01:59:19.398Z,16.52
2022-09-14T01:59:29.908Z,16.52
2022-09-14T01:59:40.428Z,16.52
2022-09-14T01:59:50.948Z,16.50
2022-09-14T02:00:01.476Z,16.50
2022-09-14T02:00:11.992Z,16.52
2022-09-14T02:00:22.512Z,16.49
2022-09-14T02:00:33.083Z,16.49
2022-09-14T02:00:43.599Z,16.49
2022-09-14T02:00:54.179Z,16.49
2022-09-14T02:01:04.670Z,16.48
2022-09-14T02:01:15.161Z,16.46
2022-09-14T02:01:25.737Z,16.45
2022-09-14T02:01:36.140Z,16.46
2022-09-14T02:01:50.375Z,16.46
2022-09-14T02:01:57.230Z,16.48
2022-09-14T02:02:07.800Z,16.45
2022-09-14T02:02:18.324Z,16.45
2022-09-14T02:02:28.865Z,16.46
2022-09-14T02:02:39.337Z,16.45
2022-09-14T02:02:49.782Z,16.46
2022-09-14T02:03:00.300Z,16.43
2022-09-14T02:03:10.820Z,16.43
2022-09-14T02:03:21.339Z,16.43
2022-09-14T02:03:31.862Z,16.45
2022-09-14T02:03:42.380Z,16.43
2022-09-14T02:03:52.966Z,16.43
2022-09-14T02:04:03.444Z,16.45
2022-09-14T02:04:13.939Z,16.45
2022-09-14T02:04:24.452Z,16.46
2022-09-14T02:04:34.967Z,16.43
2022-09-14T02:04:45.488Z,16.45
2022-09-14T02:04:56.011Z,16.46
2022-09-14T02:05:06.532Z,16.45
2022-09-14T02:05:17.048Z,16.43
2022-09-14T02:05:27.566Z,16.45
2022-09-14T02:05:38.114Z,16.45
2022-09-14T02:05:48.598Z,16.43
2022-09-14T02:05:59.122Z,16.43
2022-09-14T02:06:09.639Z,16.43
2022-09-14T02:06:20.154Z,16.42
2022-09-14T02:06:30.676Z,16.43
2022-09-14T02:06:41.188Z,16.43
2022-09-14T02:06:51.705Z,16.42
2022-09-14T02:07:02.227Z,16.42
2022-09-14T02:07:12.756Z,16.41
2022-09-14T02:07:23.263Z,16.41
2022-09-14T02:07:33.778Z,16.41
2022-09-14T02:07:44.297Z,16.41
2022-09-14T02:07:54.818Z,16.42
2022-09-14T02:08:05.338Z,16.39
2022-09-14T02:08:15.860Z,16.41
2022-09-14T02:08:26.372Z,16.39
2022-09-14T02:08:36.903Z,16.39
2022-09-14T02:08:47.415Z,16.39
2022-09-14T02:08:57.943Z,16.39
2022-09-14T02:09:08.451Z,16.39
2022-09-14T02:09:18.964Z,16.39
2022-09-14T02:09:29.501Z,16.38
2022-09-14T02:09:40.009Z,16.38
2022-09-14T02:09:50.524Z,16.39
2022-09-14T02:10:01.040Z,16.38
2022-09-14T02:10:11.557Z,16.38
2022-09-14T02:10:22.188Z,16.38
2022-09-14T02:10:32.597Z,16.38
2022-09-14T02:10:43.116Z,16.38
2022-09-14T02:10:53.640Z,16.35
2022-09-14T02:11:04.179Z,16.35
2022-09-14T02:11:14.676Z,16.35
2022-09-14T02:11:25.197Z,16.34
2022-09-14T02:11:35.712Z,16.33
2022-09-14T02:11:46.229Z,16.31
2022-09-14T02:11:56.756Z,16.30
2022-09-14T02:12:07.266Z,16.28
2022-09-14T02:12:17.789Z,16.27
2022-09-14T02:12:28.338Z,16.28
2022-09-14T02:12:38.825Z,16.30
2022-09-14T02:12:49.341Z,16.27
2022-09-14T02:12:59.862Z,16.25
2022-09-14T02:13:10.380Z,16.27
2022-09-14T02:13:20.897Z,16.25
2022-09-14T02:13:31.416Z,16.27
2022-09-14T02:13:41.941Z,16.27
2022-09-14T02:13:52.452Z,16.25
2022-09-14T02:14:02.965Z,16.25
2022-09-14T02:14:13.489Z,16.25
2022-09-14T02:14:24.007Z,16.25
2022-09-14T02:14:34.523Z,16.24
2022-09-14T02:14:45.052Z,16.24
2022-09-14T02:14:55.560Z,16.25
2022-09-14T02:15:06.082Z,16.23
2022-09-14T02:15:16.606Z,16.24
2022-09-14T02:15:27.114Z,16.21